Time;durP1;ratioP1;P1;durP2;ratioP2;P2;SDS_P1;SDS_P2;PMS_P1;PMS_P2;Temp;Humidity;BMP_temperature;BMP_pressure;BME280_temperature;BME280_humidity;BME280_pressure;Samples;Min_cycle;Max_cycle;Signal;HPM_P1;HPM_P2
2023/03/25 00:00:20;;;;;;;6.63;5.30;;;;;;;10.99;95.49;98817.22;5091508;28;20081;-51
2023/03/25 00:02:51;;;;;;;6.65;5.47;;;;;;;10.86;95.48;98812.72;5056831;28;20059;-51
2023/03/25 00:05:19;;;;;;;7.00;5.65;;;;;;;10.79;95.39;98810.09;5073116;28;20024;-51
2023/03/25 00:07:47;;;;;;;14.25;6.50;;;;;;;10.87;96.19;98811.72;5091510;28;20485;-50
2023/03/25 00:10:14;;;;;;;9.52;5.93;;;;;;;10.87;96.53;98809.09;5073237;28;20032;-51
2023/03/25 00:12:41;;;;;;;6.63;5.55;;;;;;;10.81;92.75;98814.34;5091365;28;20516;-51
2023/03/25 00:15:08;;;;;;;15.85;7.47;;;;;;;10.68;90.49;98804.59;5091628;28;20032;-51
2023/03/25 00:17:35;;;;;;;12.73;6.40;;;;;;;10.97;90.34;98806.91;5073215;28;20024;-51
2023/03/25 00:20:04;;;;;;;7.80;2.95;;;;;;;11.37;88.12;98806.94;5091917;28;20020;-50
2023/03/25 00:22:30;;;;;;;11.65;5.55;;;;;;;11.58;84.43;98813.78;5095325;28;20165;-51
2023/03/25 00:24:56;;;;;;;11.05;5.90;;;;;;;11.33;87.88;98816.22;5094924;28;20028;-51
2023/03/25 00:27:21;;;;;;;8.30;6.72;;;;;;;11.12;89.42;98819.84;5076648;28;20032;-50
2023/03/25 00:29:47;;;;;;;9.13;3.80;;;;;;;10.92;91.76;98819.00;5076654;28;20030;-50
2023/03/25 00:32:14;;;;;;;8.20;4.35;;;;;;;11.08;89.18;98813.38;5094804;28;20024;-51
2023/03/25 00:34:45;;;;;;;4.15;2.67;;;;;;;11.11;87.35;98817.44;5094809;28;20020;-50
2023/03/25 00:37:12;;;;;;;9.65;3.30;;;;;;;11.29;86.68;98822.91;5094757;28;20079;-51
2023/03/25 00:39:37;;;;;;;5.93;2.92;;;;;;;11.37;87.23;98832.41;5076558;28;20119;-51
2023/03/25 00:42:04;;;;;;;8.63;4.82;;;;;;;11.26;87.10;98828.53;5076496;28;20059;-50
2023/03/25 00:44:30;;;;;;;7.05;4.30;;;;;;;11.18;87.75;98829.53;5076404;28;20031;-51
2023/03/25 00:46:55;;;;;;;10.02;5.30;;;;;;;11.17;89.31;98830.56;5094569;28;20032;-51
2023/03/25 00:49:23;;;;;;;7.65;4.75;;;;;;;11.19;90.74;98827.75;5076392;28;20119;-51
2023/03/25 00:51:52;;;;;;;7.00;5.00;;;;;;;11.07;91.08;98824.09;5094302;28;20413;-51
2023/03/25 00:54:20;;;;;;;13.88;5.50;;;;;;;10.92;91.22;98832.13;5076200;28;20401;-50
2023/03/25 00:56:48;;;;;;;8.48;4.85;;;;;;;11.00;92.13;98840.63;5094415;28;20602;-51
2023/03/25 00:59:14;;;;;;;6.97;3.63;;;;;;;11.06;91.76;98843.47;5076223;28;20020;-51
2023/03/25 01:01:40;;;;;;;6.60;4.05;;;;;;;11.20;92.30;98842.47;5094341;28;20016;-50
2023/03/25 01:04:11;;;;;;;6.57;4.18;;;;;;;11.16;90.26;98841.25;5094183;28;20043;-50
2023/03/25 01:06:50;;;;;;;6.40;3.35;;;;;;;11.04;89.92;98840.25;5094493;28;20028;-51
2023/03/25 01:09:18;;;;;;;8.90;3.92;;;;;;;11.19;90.39;98836.41;5094187;28;20024;-51
2023/03/25 01:11:45;;;;;;;6.90;4.70;;;;;;;11.26;90.84;98833.00;5075905;28;20024;-51
2023/03/25 01:14:15;;;;;;;8.63;4.80;;;;;;;11.22;90.67;98829.16;5075835;28;20115;-51
2023/03/25 01:16:41;;;;;;;6.00;3.63;;;;;;;11.16;89.67;98830.75;5094064;28;20035;-51
2023/03/25 01:19:07;;;;;;;6.43;3.67;;;;;;;11.14;84.90;98830.16;5093986;28;20107;-51
2023/03/25 01:21:35;;;;;;;10.45;3.15;;;;;;;11.08;85.07;98831.75;5075646;28;20017;-51
2023/03/25 01:24:00;;;;;;;5.32;3.30;;;;;;;11.11;84.10;98836.63;5075538;28;20043;-51
2023/03/25 01:26:26;;;;;;;5.38;4.03;;;;;;;11.06;83.16;98836.41;5075582;28;20055;-51
2023/03/25 01:28:52;;;;;;;5.30;3.78;;;;;;;11.10;82.41;98842.88;5075883;28;20398;-51
2023/03/25 01:31:18;;;;;;;9.13;4.22;;;;;;;11.13;83.68;98841.69;5092971;28;20520;-51
2023/03/25 01:33:44;;;;;;;10.07;4.05;;;;;;;11.43;86.41;98847.38;5093327;28;20016;-51
2023/03/25 01:36:11;;;;;;;11.10;3.95;;;;;;;11.64;87.29;98835.03;5075640;28;20034;-51
2023/03/25 01:38:38;;;;;;;13.50;3.13;;;;;;;11.83;85.49;98836.00;5093486;28;20394;-51
2023/03/25 01:41:05;;;;;;;6.40;2.55;;;;;;;11.88;80.43;98841.47;5093484;28;20482;-51
2023/03/25 01:43:32;;;;;;;4.82;2.72;;;;;;;12.07;82.49;98839.84;5075886;28;20374;-51
2023/03/25 01:45:58;;;;;;;9.18;3.60;;;;;;;12.11;82.04;98849.75;5075174;28;20047;-51
2023/03/25 01:48:36;;;;;;;5.75;3.70;;;;;;;12.03;84.11;98834.16;5093372;28;20436;-51
2023/03/25 01:51:11;;;;;;;6.45;3.90;;;;;;;11.74;84.25;98853.81;5074980;28;20572;-51
2023/03/25 01:53:38;;;;;;;11.70;4.00;;;;;;;11.37;84.07;98845.53;5093384;28;20046;-51
2023/03/25 01:56:06;;;;;;;7.55;3.47;;;;;;;11.12;86.16;98842.66;5093195;28;20063;-51
2023/03/25 01:58:34;;;;;;;4.72;3.17;;;;;;;11.02;87.62;98831.75;5074966;28;20039;-50
2023/03/25 02:01:02;;;;;;;6.90;2.83;;;;;;;11.08;88.54;98838.81;5093037;28;20529;-51
2023/03/25 02:03:30;;;;;;;5.78;3.67;;;;;;;11.18;89.50;98839.25;5074951;28;20115;-51
2023/03/25 02:06:07;;;;;;;4.55;3.53;;;;;;;11.26;89.70;98843.50;5074748;28;20063;-51
2023/03/25 02:08:37;;;;;;;7.28;3.55;;;;;;;11.05;88.71;98842.66;5074837;28;20027;-51
2023/03/25 02:11:04;;;;;;;4.68;2.58;;;;;;;11.03;89.97;98849.09;5074647;28;20489;-51
2023/03/25 02:13:32;;;;;;;7.20;4.10;;;;;;;11.00;88.35;98848.50;5093166;28;20025;-51
2023/03/25 02:16:15;;;;;;;6.97;4.00;;;;;;;10.91;88.82;98841.03;5092843;28;20039;-51
2023/03/25 02:19:00;;;;;;;7.47;3.33;;;;;;;10.95;89.19;98842.25;5092769;28;20035;-51
2023/03/25 02:21:53;;;;;;;6.93;3.45;;;;;;;11.15;90.79;98839.66;5093097;28;20027;-51
2023/03/25 02:24:28;;;;;;;7.43;2.72;;;;;;;11.20;87.56;98837.22;5092744;28;20028;-51
2023/03/25 02:27:26;;;;;;;4.72;2.17;;;;;;;11.40;87.76;98838.03;5092705;28;20078;-51
2023/03/25 02:30:13;;;;;;;5.55;2.30;;;;;;;11.71;89.48;98839.28;5059386;28;20528;-51
2023/03/25 02:33:11;;;;;;;10.10;2.67;;;;;;;12.06;89.54;98836.41;5092618;28;20107;-51
2023/03/25 02:35:59;;;;;;;7.20;2.25;;;;;;;12.25;85.37;98831.28;5092514;28;20113;-51
2023/03/25 02:38:44;;;;;;;4.72;2.05;;;;;;;12.33;79.25;98831.84;5092485;28;20071;-51
2023/03/25 02:41:20;;;;;;;6.03;1.67;;;;;;;12.38;80.73;98833.88;5092784;28;20106;-51
2023/03/25 02:44:06;;;;;;;6.93;2.03;;;;;;;12.45;77.67;98834.66;5073819;28;20505;-51
2023/03/25 02:46:35;;;;;;;6.78;3.78;;;;;;;12.53;79.64;98830.97;5092350;28;20073;-51
2023/03/25 02:49:18;;;;;;;13.50;8.68;;;;;;;12.49;81.69;98837.69;5092182;28;20016;-51
2023/03/25 02:51:51;;;;;;;11.23;3.28;;;;;;;12.49;80.26;98835.06;5070462;28;20060;-51
2023/03/25 02:54:19;;;;;;;11.48;2.80;;;;;;;12.43;80.79;98834.06;5072166;28;20094;-51
2023/03/25 02:56:48;;;;;;;8.57;2.35;;;;;;;12.36;80.90;98836.72;5071903;28;20071;-51
2023/03/25 02:59:16;;;;;;;4.82;1.60;;;;;;;12.45;78.62;98824.13;5070605;28;20028;-51
2023/03/25 03:01:43;;;;;;;8.50;2.53;;;;;;;12.46;79.47;98833.66;5071821;28;20017;-51
2023/03/25 03:04:08;;;;;;;8.00;2.15;;;;;;;12.40;78.23;98829.22;5071920;28;20047;-51
2023/03/25 03:06:40;;;;;;;7.50;2.10;;;;;;;12.25;76.06;98834.72;5070478;28;20497;-51
2023/03/25 03:09:18;;;;;;;8.02;2.20;;;;;;;11.94;73.79;98823.06;5071835;28;20024;-51
2023/03/25 03:11:44;;;;;;;7.85;2.65;;;;;;;11.72;78.33;98814.59;5070442;28;20167;-51
2023/03/25 03:14:31;;;;;;;6.18;2.47;;;;;;;11.39;79.07;98807.53;5070403;28;20120;-51
2023/03/25 03:17:09;;;;;;;11.38;2.33;;;;;;;11.18;79.88;98802.47;5071569;28;20020;-51
2023/03/25 03:19:51;;;;;;;8.93;2.42;;;;;;;11.30;80.11;98792.97;5071890;28;20028;-51
2023/03/25 03:22:40;;;;;;;8.73;2.40;;;;;;;11.39;78.63;98798.84;5070352;28;20025;-51
2023/03/25 03:25:34;;;;;;;10.43;2.10;;;;;;;11.40;79.08;98803.09;5070209;28;20413;-51
2023/03/25 03:28:28;;;;;;;4.50;2.00;;;;;;;11.39;79.38;98809.38;5070350;28;20021;-51
2023/03/25 03:31:07;;;;;;;5.85;1.90;;;;;;;11.32;76.95;98803.28;5065725;28;20094;-51
2023/03/25 03:33:46;;;;;;;7.30;2.15;;;;;;;11.29;76.18;98807.13;5053684;28;20055;-50
2023/03/25 03:36:19;;;;;;;4.45;1.58;;;;;;;11.22;77.71;98811.56;5070179;28;20035;-51
2023/03/25 03:39:00;;;;;;;6.00;2.22;;;;;;;11.29;80.24;98825.53;5071579;28;20029;-51
2023/03/25 03:41:28;;;;;;;9.90;2.78;;;;;;;11.35;82.81;98835.22;5071777;28;20029;-50
2023/03/25 03:44:05;;;;;;;4.72;3.80;;;;;;;11.28;84.28;98838.84;5071454;28;20016;-51
2023/03/25 03:46:37;;;;;;;5.45;4.50;;;;;;;11.22;85.72;98827.31;5070164;28;20482;-51
2023/03/25 03:49:08;;;;;;;6.80;3.47;;;;;;;11.13;84.69;98829.34;5071613;28;20409;-51
2023/03/25 03:51:45;;;;;;;8.15;2.80;;;;;;;11.32;86.08;98835.63;5070030;28;20059;-51
2023/03/25 03:54:34;;;;;;;59.60;6.15;;;;;;;11.47;83.52;98831.97;5070044;28;20032;-51
2023/03/25 03:57:07;;;;;;;6.28;2.00;;;;;;;11.59;82.34;98835.63;5074947;28;20029;-51
2023/03/25 04:00:06;;;;;;;5.28;2.20;;;;;;;11.85;79.20;98833.97;5075227;28;20024;-51
2023/03/25 04:02:37;;;;;;;5.78;1.85;;;;;;;11.88;78.82;98823.88;5059096;28;20043;-51
2023/03/25 04:05:07;;;;;;;5.65;2.08;;;;;;;11.80;76.92;98819.63;5073651;28;20585;-51
2023/03/25 04:07:59;;;;;;;6.15;2.08;;;;;;;11.73;75.84;98818.84;5073756;28;20037;-51
2023/03/25 04:10:51;;;;;;;5.97;2.83;;;;;;;11.75;77.08;98818.63;5075020;28;20394;-51
2023/03/25 04:13:20;;;;;;;8.48;2.10;;;;;;;11.75;76.35;98819.44;5075120;28;20557;-51
2023/03/25 04:15:47;;;;;;;5.95;2.35;;;;;;;11.79;77.76;98827.72;5073552;28;20032;-51
2023/03/25 04:18:12;;;;;;;7.95;1.85;;;;;;;11.80;75.88;98824.88;5074818;28;20021;-51
2023/03/25 04:20:43;;;;;;;8.38;2.10;;;;;;;11.87;77.31;98822.25;5073535;28;20525;-51
2023/03/25 04:23:15;;;;;;;6.50;1.90;;;;;;;11.94;73.94;98823.06;5074704;28;20036;-51
2023/03/25 04:25:46;;;;;;;5.97;1.95;;;;;;;11.88;74.13;98833.59;5074592;28;20029;-51
2023/03/25 04:28:12;;;;;;;10.43;2.25;;;;;;;11.93;77.50;98837.25;5074650;28;20032;-51
2023/03/25 04:30:39;;;;;;;10.88;3.30;;;;;;;12.22;80.08;98844.88;5074599;28;20548;-50
2023/03/25 04:33:06;;;;;;;9.95;2.78;;;;;;;12.19;79.61;98840.81;5074496;28;20025;-51
2023/03/25 04:35:32;;;;;;;4.35;2.40;;;;;;;12.05;77.51;98845.28;5074525;28;20032;-51
2023/03/25 04:37:58;;;;;;;7.50;2.63;;;;;;;12.03;78.46;98849.16;5073204;28;20084;-51
2023/03/25 04:40:24;;;;;;;5.65;1.88;;;;;;;12.17;78.02;98846.31;5074369;28;20020;-51
2023/03/25 04:42:52;;;;;;;7.68;2.60;;;;;;;12.40;79.94;98863.44;5073053;28;20030;-51
2023/03/25 04:45:20;;;;;;;5.10;2.13;;;;;;;12.61;80.22;98861.53;5074111;28;20048;-51
2023/03/25 04:47:48;;;;;;;12.07;2.40;;;;;;;12.69;77.52;98850.75;5072998;28;20063;-51
2023/03/25 04:50:19;;;;;;;9.35;2.83;;;;;;;12.99;78.56;98854.44;5072947;28;20398;-51
2023/03/25 04:52:45;;;;;;;9.25;2.30;;;;;;;12.95;75.54;98855.88;5072682;28;20406;-51
2023/03/25 04:55:16;;;;;;;11.00;2.40;;;;;;;12.88;73.32;98847.22;5073999;28;20044;-51
2023/03/25 04:57:46;;;;;;;4.35;1.58;;;;;;;13.12;75.14;98850.94;5074192;28;20036;-51
2023/03/25 05:00:13;;;;;;;4.90;1.67;;;;;;;13.22;74.41;98849.66;5072790;28;20025;-51
2023/03/25 05:02:47;;;;;;;10.75;2.47;;;;;;;13.19;73.02;98850.88;5072756;28;20112;-51
2023/03/25 05:05:17;;;;;;;4.70;1.52;;;;;;;13.21;73.87;98853.31;5073929;28;20111;-51
2023/03/25 05:07:48;;;;;;;3.63;1.60;;;;;;;13.23;73.28;98856.56;5073545;28;20028;-51
2023/03/25 05:10:15;;;;;;;9.43;2.55;;;;;;;13.27;75.76;98858.53;5073854;28;20039;-52
2023/03/25 05:12:41;;;;;;;7.15;1.90;;;;;;;13.22;76.41;98862.81;5074000;28;20402;-51
2023/03/25 05:15:08;;;;;;;5.72;1.88;;;;;;;13.11;77.86;98867.75;5073771;28;20039;-51
2023/03/25 05:17:34;;;;;;;8.77;1.90;;;;;;;13.16;78.57;98861.88;5073663;28;20079;-51
2023/03/25 05:20:00;;;;;;;5.60;2.30;;;;;;;13.26;78.99;98864.00;5072504;28;20025;-51
2023/03/25 05:22:26;;;;;;;6.47;2.10;;;;;;;13.32;78.43;98861.38;5073691;28;20463;-51
2023/03/25 05:24:53;;;;;;;7.85;2.83;;;;;;;13.35;74.28;98871.47;5073453;28;20063;-51
2023/03/25 05:27:19;;;;;;;8.52;1.88;;;;;;;13.37;70.29;98860.72;5073506;28;20020;-51
2023/03/25 05:29:45;;;;;;;4.38;1.70;;;;;;;13.35;69.84;98868.84;5072265;28;20024;-51
2023/03/25 05:32:17;;;;;;;9.02;1.20;;;;;;;13.30;68.09;98863.44;5072163;28;20025;-51
2023/03/25 05:34:46;;;;;;;5.32;1.75;;;;;;;13.11;64.53;98864.31;5072235;28;20087;-51
2023/03/25 05:37:13;;;;;;;3.78;1.30;;;;;;;12.93;66.96;98872.94;5073390;28;20024;-51
2023/03/25 05:39:39;;;;;;;4.20;1.10;;;;;;;12.85;65.95;98870.53;5073234;28;20112;-51
2023/03/25 05:42:04;;;;;;;5.53;1.52;;;;;;;12.75;65.55;98865.72;5073244;28;20091;-51
2023/03/25 05:44:30;;;;;;;4.60;1.67;;;;;;;12.71;64.86;98860.06;5073161;28;20059;-51
2023/03/25 05:46:56;;;;;;;5.53;1.60;;;;;;;12.81;67.70;98859.63;5073378;28;20451;-51
2023/03/25 05:49:21;;;;;;;5.15;1.30;;;;;;;12.91;67.25;98857.34;5071951;28;20115;-51
2023/03/25 05:51:48;;;;;;;4.10;1.30;;;;;;;12.93;67.48;98860.56;5082637;28;20533;-52
2023/03/25 05:54:15;;;;;;;2.75;1.27;;;;;;;12.94;66.20;98867.47;5075653;28;20131;-51
2023/03/25 05:56:41;;;;;;;5.82;1.75;;;;;;;12.96;66.71;98868.06;5075007;28;20078;-52
2023/03/25 05:59:09;;;;;;;8.85;1.85;;;;;;;13.01;66.02;98863.97;5093154;28;20027;-51
2023/03/25 06:01:42;;;;;;;5.95;1.60;;;;;;;12.98;65.77;98855.47;5093127;28;20076;-51
2023/03/25 06:04:08;;;;;;;6.45;1.80;;;;;;;13.04;66.05;98847.72;5075939;28;20469;-51
2023/03/25 06:06:34;;;;;;;8.75;1.83;;;;;;;12.98;63.46;98849.41;5093054;28;20149;-52
2023/03/25 06:09:01;;;;;;;6.35;2.38;;;;;;;12.85;62.38;98852.91;5093302;28;20409;-52
2023/03/25 06:11:26;;;;;;;7.68;1.25;;;;;;;12.77;63.48;98864.50;5092973;28;20023;-52
2023/03/25 06:13:52;;;;;;;9.00;1.95;;;;;;;12.70;64.57;98847.13;5092946;28;20028;-51
2023/03/25 06:16:21;;;;;;;5.78;1.55;;;;;;;12.70;63.31;98831.31;5093197;28;20402;-51
2023/03/25 06:18:55;;;;;;;7.47;2.25;;;;;;;12.77;63.84;98834.72;5092075;28;20020;-52
2023/03/25 06:21:21;;;;;;;5.32;1.42;;;;;;;12.95;65.39;98823.47;5092864;28;20039;-51
2023/03/25 06:23:48;;;;;;;6.55;2.17;;;;;;;13.18;64.23;98841.38;5074544;28;20028;-52
2023/03/25 06:26:15;;;;;;;7.30;1.80;;;;;;;13.77;63.97;98847.22;5074353;28;20107;-52
2023/03/25 06:28:41;;;;;;;6.43;1.48;;;;;;;14.18;63.72;98859.81;5092691;28;20103;-51
2023/03/25 06:31:15;;;;;;;4.25;1.33;;;;;;;14.08;63.50;98856.84;5092753;28;20177;-49
2023/03/25 06:33:46;;;;;;;5.55;1.45;;;;;;;13.94;64.12;98876.50;5092639;28;20025;-49
2023/03/25 06:36:19;;;;;;;5.45;1.25;;;;;;;13.76;61.93;98887.81;5092574;28;20453;-49
2023/03/25 06:38:47;;;;;;;7.35;1.88;;;;;;;13.65;62.01;98875.34;5092637;28;20371;-49
2023/03/25 06:41:20;;;;;;;3.60;1.15;;;;;;;13.56;61.31;98874.78;5092716;28;20098;-49
2023/03/25 06:43:47;;;;;;;6.38;1.60;;;;;;;13.55;60.65;98870.53;5074287;28;20054;-49
2023/03/25 06:46:13;;;;;;;5.47;1.23;;;;;;;13.53;61.15;98881.28;5092317;28;20024;-49
2023/03/25 06:48:39;;;;;;;6.35;1.33;;;;;;;13.54;62.34;98884.72;5092499;28;20032;-49
2023/03/25 06:51:05;;;;;;;5.25;1.38;;;;;;;13.52;63.50;98877.06;5092084;28;20406;-49
2023/03/25 06:53:31;;;;;;;6.65;2.17;;;;;;;13.61;65.08;98888.13;5074244;28;20031;-49
2023/03/25 06:55:57;;;;;;;7.97;1.60;;;;;;;13.69;63.35;98887.88;5092408;28;20448;-49
2023/03/25 06:58:23;;;;;;;5.22;1.20;;;;;;;13.62;62.54;98892.38;5074146;28;20031;-49
2023/03/25 07:00:55;;;;;;;8.95;2.47;;;;;;;13.57;62.55;98889.59;5074068;28;20107;-48
2023/03/25 07:03:20;;;;;;;5.60;1.98;;;;;;;13.75;63.53;98887.00;5092038;28;20024;-49
2023/03/25 07:05:49;;;;;;;4.97;1.88;;;;;;;13.84;63.12;98889.38;5074217;28;20107;-49
2023/03/25 07:08:15;;;;;;;5.53;2.25;;;;;;;13.94;63.91;98884.41;5074012;28;20512;-49
2023/03/25 07:10:41;;;;;;;2.13;1.05;;;;;;;14.14;62.09;98881.56;5073876;28;20024;-49
2023/03/25 07:13:08;;;;;;;13.07;1.80;;;;;;;14.25;61.06;98890.63;5092281;28;20493;-49
2023/03/25 07:15:34;;;;;;;6.35;1.65;;;;;;;14.26;62.28;98889.59;5073802;28;20024;-49
2023/03/25 07:18:00;;;;;;;5.07;1.10;;;;;;;14.35;61.65;98894.38;5091984;28;20048;-49
2023/03/25 07:20:25;;;;;;;5.25;1.88;;;;;;;14.39;61.62;98884.97;5073772;28;20066;-49
2023/03/25 07:22:54;;;;;;;5.90;1.58;;;;;;;14.45;61.31;98891.22;5073732;28;20022;-50
2023/03/25 07:25:20;;;;;;;3.78;1.88;;;;;;;14.47;61.55;98901.56;5091833;28;20497;-49
2023/03/25 07:27:45;;;;;;;3.70;1.10;;;;;;;14.45;61.00;98885.13;5073701;28;20016;-49
2023/03/25 07:30:12;;;;;;;5.00;1.38;;;;;;;14.65;60.99;98900.75;5094265;28;20394;-49
2023/03/25 07:32:37;;;;;;;6.40;1.63;;;;;;;14.80;60.79;98887.97;5077848;28;20501;-49
2023/03/25 07:35:04;;;;;;;5.93;1.60;;;;;;;14.95;60.89;98888.41;5077733;28;20030;-49
2023/03/25 07:37:30;;;;;;;6.10;1.17;;;;;;;15.13;59.14;98913.16;5077760;28;20405;-49
2023/03/25 07:39:55;;;;;;;6.43;1.40;;;;;;;15.20;59.46;98908.59;5077657;28;20024;-49
2023/03/25 07:42:21;;;;;;;4.97;1.30;;;;;;;15.28;59.25;98908.28;5077653;28;20165;-50
2023/03/25 07:44:46;;;;;;;5.40;1.52;;;;;;;15.37;57.96;98914.03;5095709;28;20042;-49
2023/03/25 07:47:12;;;;;;;3.80;1.20;;;;;;;15.40;60.44;98908.31;5095751;28;20020;-50
2023/03/25 07:49:39;;;;;;;3.90;1.50;;;;;;;15.59;59.36;98916.97;5095750;28;20025;-49
2023/03/25 07:52:06;;;;;;;5.90;1.67;;;;;;;15.84;61.01;98913.38;5095404;28;20047;-49
2023/03/25 07:54:32;;;;;;;4.70;1.35;;;;;;;16.00;60.49;98918.00;5077407;28;20040;-49
2023/03/25 07:56:57;;;;;;;7.47;1.42;;;;;;;16.66;59.74;98908.03;5077730;28;20481;-50
2023/03/25 07:59:24;;;;;;;7.60;1.33;;;;;;;17.99;59.25;98912.25;5077294;28;20409;-49
2023/03/25 08:01:49;;;;;;;7.53;1.67;;;;;;;18.93;53.47;98911.38;5095485;28;20438;-50
2023/03/25 08:04:15;;;;;;;6.15;1.60;;;;;;;19.19;55.15;98897.53;5095372;28;20055;-47
2023/03/25 08:06:41;;;;;;;10.77;1.58;;;;;;;19.01;52.89;98906.66;5095294;28;20469;-46
2023/03/25 08:09:06;;;;;;;3.53;1.05;;;;;;;18.66;55.06;98910.50;5095389;28;20106;-46
2023/03/25 08:11:32;;;;;;;6.88;1.17;;;;;;;18.49;54.15;98910.53;5077045;28;20031;-47
2023/03/25 08:13:58;;;;;;;5.25;1.60;;;;;;;18.22;51.96;98915.75;5095252;28;20070;-46
2023/03/25 08:16:23;;;;;;;7.38;2.10;;;;;;;18.16;55.25;98917.53;5095229;28;20031;-46
2023/03/25 08:18:51;;;;;;;10.77;4.35;;;;;;;17.96;55.07;98924.16;5095157;28;20024;-46
2023/03/25 08:21:24;;;;;;;8.77;2.20;;;;;;;17.64;54.39;98918.56;5095098;28;20047;-47
2023/03/25 08:23:57;;;;;;;11.65;2.00;;;;;;;17.28;54.53;98920.59;5095007;28;20036;-46
2023/03/25 08:26:26;;;;;;;6.95;1.73;;;;;;;16.97;55.83;98928.00;5094987;28;20035;-47
2023/03/25 08:28:53;;;;;;;9.23;1.80;;;;;;;16.93;58.73;98936.66;5077063;28;20108;-46
2023/03/25 08:31:20;;;;;;;3.97;1.10;;;;;;;17.00;58.24;98932.03;5094867;28;20544;-47
2023/03/25 08:33:46;;;;;;;5.38;1.45;;;;;;;16.96;58.13;98936.19;5094883;28;20031;-47
2023/03/25 08:36:18;;;;;;;3.55;1.40;;;;;;;16.91;54.99;98936.91;5076611;28;20061;-46
2023/03/25 08:38:47;;;;;;;6.78;1.40;;;;;;;17.01;56.49;98935.50;5094829;28;20172;-46
2023/03/25 08:41:13;;;;;;;5.50;1.33;;;;;;;17.22;56.63;98937.47;5075680;28;20024;-46
2023/03/25 08:43:38;;;;;;;7.65;3.22;;;;;;;17.22;56.16;98929.50;5076512;28;20249;-46
2023/03/25 08:46:04;;;;;;;6.43;1.30;;;;;;;17.44;58.96;98934.16;5094622;28;20028;-47
2023/03/25 08:48:30;;;;;;;9.63;2.13;;;;;;;17.60;54.77;98943.97;5094587;28;20030;-46
2023/03/25 08:50:55;;;;;;;4.18;1.20;;;;;;;17.52;54.47;98939.06;5094364;28;20044;-47
2023/03/25 08:53:21;;;;;;;7.95;3.25;;;;;;;17.56;57.31;98938.34;5076390;28;20031;-46
2023/03/25 08:55:54;;;;;;;6.13;2.03;;;;;;;17.60;56.20;98930.72;5094645;28;20024;-47
2023/03/25 08:58:21;;;;;;;12.68;5.32;;;;;;;17.71;57.21;98921.88;5094764;28;20036;-46
2023/03/25 09:00:48;;;;;;;6.93;1.95;;;;;;;17.91;55.38;98926.75;5094264;28;20020;-46
2023/03/25 09:03:15;;;;;;;9.27;2.70;;;;;;;18.10;54.64;98931.78;5094304;28;20065;-47
2023/03/25 09:05:40;;;;;;;5.10;1.92;;;;;;;18.21;53.97;98938.03;5094178;28;20020;-47
2023/03/25 09:08:07;;;;;;;7.45;2.10;;;;;;;18.17;55.73;98940.41;5094226;28;20028;-47
2023/03/25 09:10:33;;;;;;;4.30;1.10;;;;;;;18.04;55.59;98933.56;5075951;28;20464;-47
2023/03/25 09:12:58;;;;;;;5.28;1.58;;;;;;;17.94;53.85;98933.41;5094141;28;20108;-47
2023/03/25 09:15:25;;;;;;;5.30;1.38;;;;;;;17.87;54.79;98924.81;5094081;28;20115;-47
2023/03/25 09:17:51;;;;;;;4.32;1.10;;;;;;;17.75;55.76;98925.66;5093987;28;20020;-47
2023/03/25 09:20:17;;;;;;;4.68;1.20;;;;;;;17.70;53.72;98927.41;5094000;28;20073;-47
2023/03/25 09:22:43;;;;;;;4.50;1.02;;;;;;;17.58;53.30;98924.84;5093935;28;20099;-46
2023/03/25 09:25:09;;;;;;;7.18;1.55;;;;;;;17.41;54.00;98924.03;5093822;28;20024;-47
2023/03/25 09:27:36;;;;;;;6.20;1.63;;;;;;;17.17;53.54;98930.22;5075827;28;20095;-46
2023/03/25 09:30:03;;;;;;;5.22;1.27;;;;;;;17.11;55.76;98928.53;5093807;28;20026;-47
2023/03/25 09:32:28;;;;;;;6.60;1.73;;;;;;;17.04;54.66;98927.84;5075508;28;20024;-46
2023/03/25 09:34:54;;;;;;;7.90;2.13;;;;;;;17.00;56.28;98931.22;5093739;28;20443;-47
2023/03/25 09:37:19;;;;;;;5.03;1.80;;;;;;;16.95;57.32;98916.81;5093665;28;20103;-46
2023/03/25 09:39:45;;;;;;;3.80;1.25;;;;;;;17.01;58.24;98915.09;5093614;28;20031;-46
2023/03/25 09:42:27;;;;;;;6.95;1.70;;;;;;;17.11;56.20;98922.44;5093475;28;20077;-46
2023/03/25 09:45:05;;;;;;;7.45;1.95;;;;;;;17.22;57.23;98918.09;5093446;28;20062;-47
2023/03/25 09:47:33;;;;;;;5.50;1.60;;;;;;;17.26;56.24;98917.38;5093709;28;20069;-47
2023/03/25 09:50:12;;;;;;;10.32;5.82;;;;;;;17.26;54.73;98912.09;5093316;28;20134;-47
2023/03/25 09:52:47;;;;;;;9.23;2.72;;;;;;;17.31;57.13;98920.16;5074117;28;20048;-46
2023/03/25 09:55:21;;;;;;;4.72;1.20;;;;;;;17.39;52.17;98918.16;5093344;28;20021;-47
2023/03/25 09:57:50;;;;;;;5.43;2.38;;;;;;;17.31;54.43;98922.78;5075036;28;20722;-46
2023/03/25 10:00:23;;;;;;;3.60;1.63;;;;;;;17.42;53.39;98923.78;5093187;28;20024;-47
2023/03/25 10:02:58;;;;;;;3.53;1.17;;;;;;;17.49;52.69;98897.09;5093248;28;20064;-47
2023/03/25 10:05:48;;;;;;;3.78;1.10;;;;;;;17.58;51.50;98911.56;5093155;28;20101;-47
2023/03/25 10:08:16;;;;;;;4.90;1.50;;;;;;;17.88;52.94;98911.28;5093313;28;20035;-46
2023/03/25 10:10:45;;;;;;;4.72;1.33;;;;;;;18.20;52.13;98915.19;5092982;28;20047;-46
2023/03/25 10:13:31;;;;;;;10.52;2.10;;;;;;;18.19;49.71;98911.75;5058160;28;20076;-47
2023/03/25 10:16:36;;;;;;;6.75;1.48;;;;;;;18.12;52.61;98917.22;5074773;28;20028;-46
2023/03/25 10:19:14;;;;;;;5.22;1.65;;;;;;;18.00;53.73;98919.16;5092965;28;20050;-46
2023/03/25 10:21:58;;;;;;;5.22;1.08;;;;;;;17.90;52.52;98926.97;5092826;28;20028;-47
2023/03/25 10:24:30;;;;;;;9.85;1.02;;;;;;;17.63;50.55;98922.28;5074534;28;20039;-47
2023/03/25 10:27:04;;;;;;;17.05;6.65;;;;;;;17.33;53.93;98920.72;5092850;28;20031;-47
2023/03/25 10:29:38;;;;;;;7.45;5.05;;;;;;;17.18;52.67;98923.06;5092761;28;20032;-47
2023/03/25 10:32:17;;;;;;;6.07;1.73;;;;;;;17.29;53.21;98935.50;5092753;28;20028;-47
2023/03/25 10:34:50;;;;;;;3.88;1.30;;;;;;;17.56;54.61;98924.28;5092680;28;20489;-47
2023/03/25 10:37:24;;;;;;;4.90;1.50;;;;;;;18.56;52.62;98905.84;5092541;28;20114;-46
2023/03/25 10:39:50;;;;;;;2.97;1.00;;;;;;;19.22;48.83;98905.81;5074364;28;20535;-47
2023/03/25 10:42:38;;;;;;;4.65;1.05;;;;;;;20.16;45.52;98906.28;5092461;28;20394;-47
2023/03/25 10:45:12;;;;;;;4.70;1.15;;;;;;;21.88;42.60;98905.44;5074140;28;20032;-47
2023/03/25 10:47:42;;;;;;;4.07;1.92;;;;;;;22.43;45.48;98898.38;5074575;28;20032;-47
2023/03/25 10:50:14;;;;;;;3.80;1.35;;;;;;;22.64;39.32;98904.47;5092351;28;20020;-47
2023/03/25 10:52:41;;;;;;;4.97;1.17;;;;;;;22.44;42.31;98902.69;5092183;28;20047;-47
2023/03/25 10:55:27;;;;;;;5.95;1.17;;;;;;;22.31;42.84;98906.72;5074065;28;20111;-47
2023/03/25 10:57:54;;;;;;;3.80;1.10;;;;;;;22.21;46.39;98905.91;5092531;28;20379;-47
2023/03/25 11:00:22;;;;;;;4.07;0.93;;;;;;;21.74;45.04;98924.69;5073922;28;20020;-47
2023/03/25 11:02:48;;;;;;;9.05;1.27;;;;;;;21.25;46.14;98911.00;5092076;28;20024;-47
2023/03/25 11:05:18;;;;;;;3.13;1.30;;;;;;;21.82;47.08;98906.53;5073530;28;20031;-47
2023/03/25 11:07:49;;;;;;;2.53;0.90;;;;;;;24.54;47.63;98888.81;5092118;28;20028;-47
2023/03/25 11:10:25;;;;;;;2.70;0.90;;;;;;;26.27;38.50;98892.56;5092074;28;20551;-47
2023/03/25 11:12:52;;;;;;;1.55;1.00;;;;;;;26.74;35.89;98898.63;5092036;28;20039;-47
2023/03/25 11:15:29;;;;;;;3.97;1.10;;;;;;;25.40;33.62;98905.63;5091941;28;20028;-47
2023/03/25 11:18:00;;;;;;;3.85;0.90;;;;;;;23.82;36.73;98909.09;5091938;28;20035;-47
2023/03/25 11:20:36;;;;;;;4.72;1.08;;;;;;;23.23;39.57;98908.19;5091869;28;20564;-47
2023/03/25 11:23:33;;;;;;;3.40;0.82;;;;;;;23.81;37.57;98899.47;5091899;28;20451;-47
2023/03/25 11:26:11;;;;;;;3.53;1.05;;;;;;;24.07;37.70;98905.38;5090614;28;20032;-47
2023/03/25 11:28:47;;;;;;;4.65;1.52;;;;;;;23.81;35.07;98893.31;5073748;28;20032;-47
2023/03/25 11:31:17;;;;;;;3.17;0.90;;;;;;;23.44;40.94;98905.34;5091681;28;20039;-47
2023/03/25 11:33:45;;;;;;;10.50;3.33;;;;;;;24.08;41.48;98895.44;5073651;28;20111;-47
2023/03/25 11:36:20;;;;;;;4.97;1.90;;;;;;;24.16;37.80;98888.66;5091655;28;20566;-47
2023/03/25 11:38:52;;;;;;;9.48;1.90;;;;;;;24.04;35.53;98887.16;5073734;28;20086;-47
2023/03/25 11:41:18;;;;;;;13.07;3.45;;;;;;;24.28;35.89;98895.22;5073604;28;20119;-47
2023/03/25 11:43:48;;;;;;;11.43;3.03;;;;;;;23.67;34.39;98893.13;5073765;28;20542;-47
2023/03/25 11:46:16;;;;;;;14.43;2.72;;;;;;;22.87;34.00;98902.22;5091832;28;20134;-47